Humidity-temperature Sensor

Selected Measurement Type: Air Temperature

 
Air Temperature [°C]     6 entries per hour
Showing data from 5/20/2024 (05:00:00 Z) to 5/19/2024 (00:01:00 Z)
Previous Next [ Day | 3-Days | 7-Days ]
First Last
Prev [ Day | 3-Days | 7-Days ] Next
First Last

Start Time:     :
End Time:     :     
Time (in GMT) :00 :50 :40 :30 :20 :10
Previous Next [ Day | 3-Days | 7-Days ]
First Last
Prev [ Day | 3-Days | 7-Days ] Next
First Last


123 => good data
MM => data is determined as missing
-- => data not received/configured
Back to Top Back to Top
5/20/2024 05:00 to 4:10 25.27 25.27 25.25 25.27 25.26 25.35
5/20/2024 04:00 to 3:10 25.32 25.29 25.27 25.36 25.37 25.35
5/20/2024 03:00 to 2:10 25.37 25.40 25.41 25.33 25.40 25.42
5/20/2024 02:00 to 1:10 25.41 25.38 25.36 25.45 25.39 25.45
5/20/2024 01:00 to 0:10 25.40 25.57 25.49 25.47 25.48 25.54
5/20/2024 00:00 to 23:10 25.57 25.52 25.53 25.57 25.67 25.56
5/19/2024 23:00 to 22:10 25.53 25.58 25.63 25.53 25.56 25.62
5/19/2024 22:00 to 21:10 25.49 25.59 25.52 25.55 25.58 25.58
5/19/2024 21:00 to 20:10 25.58 25.56 25.66 25.59 25.56 25.56
5/19/2024 20:00 to 19:10 25.68 25.53 25.47 25.49 25.51 25.50
5/19/2024 19:00 to 18:10 25.49 25.55 25.47 25.52 25.59 25.47
5/19/2024 18:00 to 17:10 25.50 25.51 25.50 25.51 25.57 25.52
5/19/2024 17:00 to 16:10 25.52 25.51 25.59 25.47 25.55 25.59
5/19/2024 16:00 to 15:10 25.52 25.60 25.59 25.59 25.61 25.58
5/19/2024 15:00 to 14:10 25.74 25.60 25.56 25.44 25.50 25.49
5/19/2024 14:00 to 13:10 25.44 25.42 25.35 25.19 25.28 25.26
5/19/2024 13:00 to 12:10 25.34 25.34 25.36 25.40 25.37 25.43
5/19/2024 12:00 to 11:10 25.37 25.29 25.34 25.39 25.41 25.31
5/19/2024 11:00 to 10:10 25.48 25.39 25.35 25.30 25.22 25.32
5/19/2024 10:00 to 9:10 25.32 25.26 25.49 25.38 25.34 25.36
5/19/2024 09:00 to 8:10 25.42 25.42 25.32 25.42 25.29 25.45
5/19/2024 08:00 to 7:10 25.45 25.48 25.41 25.42 25.45 25.44
5/19/2024 07:00 to 6:10 25.46 25.48 25.51 25.50 25.49 25.59
5/19/2024 06:00 to 5:10 25.59 25.54 25.62 25.62 25.65 25.61
5/19/2024 05:00 to 4:10 25.69 25.69 25.65 25.62 25.65 25.66
5/19/2024 04:00 to 3:10 25.61 25.64 25.62 25.63 25.61 25.60
5/19/2024 03:00 to 2:10 25.70 25.60 25.67 25.66 25.58 25.62
5/19/2024 02:00 to 1:10 25.61 25.58 25.66 25.60 25.70 25.68
5/19/2024 01:00 to 0:10 25.72 25.81 25.77 25.75 25.72 25.70